Time;durP1;ratioP1;P1;durP2;ratioP2;P2;SDS_P1;SDS_P2;PMS_P1;PMS_P2;Temp;Humidity;BMP_temperature;BMP_pressure;BME280_temperature;BME280_humidity;BME280_pressure;Samples;Min_cycle;Max_cycle;Signal;HPM_P1;HPM_P2
2021/11/24 00:00:43;;;;;;;19.47;10.60;;;5.30;99.90;;;;;;4142641;28;20479;-82
2021/11/24 00:02:45;;;;;;;15.83;9.40;;;5.40;99.90;;;;;;4137961;28;20838;-82
2021/11/24 00:04:48;;;;;;;18.63;10.17;;;5.30;99.90;;;;;;4180881;23;20726;-76
2021/11/24 00:06:50;;;;;;;17.93;9.73;;;5.30;99.90;;;;;;4162959;28;21133;-77
2021/11/24 00:08:52;;;;;;;17.77;9.87;;;5.30;99.90;;;;;;4163022;28;20477;-76
2021/11/24 00:10:54;;;;;;;21.93;10.37;;;5.40;99.90;;;;;;4163391;28;20457;-77
2021/11/24 00:12:56;;;;;;;18.23;10.37;;;5.30;99.90;;;;;;4147604;28;20479;-76
2021/11/24 00:14:58;;;;;;;20.73;11.00;;;5.30;99.90;;;;;;4164339;28;20508;-76
2021/11/24 00:17:00;;;;;;;19.93;10.17;;;5.40;99.90;;;;;;4179364;28;20461;-74
2021/11/24 00:19:02;;;;;;;17.83;10.10;;;5.40;99.90;;;;;;4179674;28;20477;-75
2021/11/24 00:21:07;;;;;;;17.97;10.20;;;5.40;99.90;;;;;;4172151;28;20981;-73
2021/11/24 00:23:09;;;;;;;18.03;10.00;;;5.40;99.90;;;;;;4178341;28;20552;-73
2021/11/24 00:25:11;;;;;;;19.20;9.77;;;5.40;99.90;;;;;;4173345;28;20536;-75
2021/11/24 00:27:13;;;;;;;19.07;9.97;;;5.40;99.90;;;;;;4174574;28;20457;-73
2021/11/24 00:29:15;;;;;;;21.70;11.03;;;5.40;99.90;;;;;;4170301;28;20552;-73
2021/11/24 00:31:17;;;;;;;19.83;10.17;;;5.40;99.90;;;;;;4164393;28;20572;-74
2021/11/24 00:33:19;;;;;;;18.27;10.47;;;5.40;99.90;;;;;;4170076;28;20469;-73
2021/11/24 00:35:21;;;;;;;20.10;10.97;;;5.40;99.90;;;;;;4164889;28;21009;-73
2021/11/24 00:37:24;;;;;;;22.33;11.27;;;5.40;99.90;;;;;;4177723;28;20558;-73
2021/11/24 00:39:26;;;;;;;20.00;10.83;;;5.40;99.90;;;;;;4175040;28;20495;-74
2021/11/24 00:41:28;;;;;;;21.10;11.13;;;5.40;99.90;;;;;;4179122;28;20461;-75
2021/11/24 00:43:30;;;;;;;22.60;11.10;;;5.40;99.90;;;;;;4179091;28;20493;-74
2021/11/24 00:45:32;;;;;;;19.50;10.33;;;5.40;99.90;;;;;;4179100;28;20457;-76
2021/11/24 00:47:34;;;;;;;22.07;11.80;;;5.40;99.90;;;;;;4172253;28;20457;-76
2021/11/24 00:49:39;;;;;;;23.30;11.90;;;5.40;99.90;;;;;;4178873;28;20472;-76
2021/11/24 00:51:40;;;;;;;23.70;12.17;;;5.40;99.90;;;;;;4173587;28;20469;-77
2021/11/24 00:53:44;;;;;;;23.23;12.03;;;5.40;99.90;;;;;;4176270;28;20935;-77
2021/11/24 00:55:46;;;;;;;21.90;11.87;;;5.40;99.90;;;;;;4173502;28;20473;-76
2021/11/24 00:57:47;;;;;;;23.03;11.53;;;5.20;99.90;;;;;;4172012;28;20980;-75
2021/11/24 00:59:49;;;;;;;22.20;11.67;;;5.40;99.90;;;;;;4179263;28;20540;-77
2021/11/24 01:01:52;;;;;;;23.03;11.27;;;5.40;99.90;;;;;;4179162;28;20464;-76
2021/11/24 01:03:54;;;;;;;21.47;11.03;;;5.40;99.90;;;;;;4176895;28;21155;-75
2021/11/24 01:05:56;;;;;;;21.57;11.07;;;5.40;99.90;;;;;;4178924;28;20553;-75
2021/11/24 01:07:57;;;;;;;19.33;10.10;;;5.40;99.90;;;;;;4164831;28;20459;-76
2021/11/24 01:10:01;;;;;;;22.60;11.37;;;5.40;99.90;;;;;;4179069;28;20556;-74
2021/11/24 01:12:04;;;;;;;20.97;11.30;;;5.40;99.90;;;;;;4164098;28;20474;-73
2021/11/24 01:14:07;;;;;;;24.93;11.77;;;5.40;99.90;;;;;;4170267;28;20495;-73
2021/11/24 01:16:09;;;;;;;23.03;11.13;;;5.40;99.90;;;;;;4178866;28;20537;-73
2021/11/24 01:18:11;;;;;;;23.83;12.23;;;5.30;99.90;;;;;;4177420;28;20478;-74
2021/11/24 01:20:14;;;;;;;21.23;11.13;;;5.40;99.90;;;;;;4178970;28;21037;-73
2021/11/24 01:22:16;;;;;;;23.30;11.57;;;5.40;99.90;;;;;;4179293;28;20457;-73
2021/11/24 01:24:18;;;;;;;20.90;11.27;;;5.40;99.90;;;;;;4176101;28;20890;-74
2021/11/24 01:26:21;;;;;;;20.67;10.67;;;5.40;99.90;;;;;;4174403;28;20464;-75
2021/11/24 01:28:23;;;;;;;22.30;11.13;;;5.40;99.90;;;;;;4173427;28;20464;-73
2021/11/24 01:30:26;;;;;;;21.70;11.80;;;5.40;99.90;;;;;;4173105;28;20459;-73
2021/11/24 01:32:28;;;;;;;20.03;10.80;;;5.40;99.90;;;;;;4173809;28;20515;-73
2021/11/24 01:34:30;;;;;;;20.47;10.93;;;5.40;99.90;;;;;;4174441;28;20507;-73
2021/11/24 01:36:32;;;;;;;22.10;11.03;;;5.40;99.90;;;;;;4173482;28;20537;-74
2021/11/24 01:38:34;;;;;;;19.60;10.57;;;5.40;99.90;;;;;;4169657;28;20470;-76
2021/11/24 01:40:36;;;;;;;22.43;11.90;;;5.30;99.90;;;;;;4179627;28;20457;-77
2021/11/24 01:42:40;;;;;;;20.73;11.13;;;5.30;99.90;;;;;;4162546;28;20446;-73
2021/11/24 01:44:42;;;;;;;22.47;11.40;;;5.30;99.90;;;;;;4172456;28;20824;-73
2021/11/24 01:46:44;;;;;;;21.40;11.23;;;5.30;99.90;;;;;;4177613;28;20467;-73
2021/11/24 01:48:46;;;;;;;21.97;11.57;;;5.30;99.90;;;;;;4165800;28;20556;-73
2021/11/24 01:50:48;;;;;;;21.90;11.53;;;5.30;99.90;;;;;;4179559;28;20492;-73
2021/11/24 01:52:50;;;;;;;24.20;12.50;;;5.30;99.90;;;;;;4178808;28;20484;-73
2021/11/24 01:54:52;;;;;;;23.37;11.77;;;5.30;99.90;;;;;;4175769;28;20490;-73
2021/11/24 01:56:54;;;;;;;21.87;11.27;;;5.30;99.90;;;;;;4177150;28;20474;-72
2021/11/24 01:58:57;;;;;;;24.23;11.73;;;5.30;99.90;;;;;;4179948;28;20465;-73
2021/11/24 02:00:59;;;;;;;23.43;11.53;;;5.30;99.90;;;;;;4174228;28;20460;-74
2021/11/24 02:03:03;;;;;;;23.13;12.37;;;5.30;99.90;;;;;;4179939;28;20456;-75
2021/11/24 02:05:06;;;;;;;23.47;11.87;;;5.30;99.90;;;;;;4179785;28;20527;-73
2021/11/24 02:07:08;;;;;;;24.60;12.00;;;5.30;99.90;;;;;;4171098;28;21009;-72
2021/11/24 02:09:11;;;;;;;25.87;12.53;;;5.30;99.90;;;;;;4170234;28;20966;-73
2021/11/24 02:11:13;;;;;;;23.33;12.40;;;5.30;99.90;;;;;;4174048;28;20456;-73
2021/11/24 02:13:15;;;;;;;25.57;12.80;;;5.30;99.90;;;;;;4172979;28;20552;-73
2021/11/24 02:15:20;;;;;;;27.50;13.37;;;5.30;99.90;;;;;;4178760;28;20481;-74
2021/11/24 02:17:22;;;;;;;22.43;11.43;;;5.30;99.90;;;;;;4169990;28;20461;-73
2021/11/24 02:19:30;;;;;;;26.37;13.67;;;5.30;99.90;;;;;;4176369;28;20468;-73
2021/11/24 02:21:33;;;;;;;25.67;13.20;;;5.30;99.90;;;;;;4181389;28;20479;-74
2021/11/24 02:23:35;;;;;;;25.07;13.03;;;5.30;99.90;;;;;;4176962;28;21013;-72
2021/11/24 02:25:38;;;;;;;25.23;12.83;;;5.30;99.90;;;;;;4173909;28;20960;-73
2021/11/24 02:27:40;;;;;;;26.20;13.90;;;5.30;99.90;;;;;;4177641;28;20458;-73
2021/11/24 02:29:45;;;;;;;27.80;13.30;;;5.20;99.90;;;;;;4174221;28;20462;-75
2021/11/24 02:31:48;;;;;;;25.90;13.17;;;5.20;99.90;;;;;;4174013;28;20480;-72
2021/11/24 02:33:51;;;;;;;27.97;13.80;;;5.20;99.90;;;;;;4177035;28;20515;-75
2021/11/24 02:35:53;;;;;;;27.80;13.47;;;5.20;99.90;;;;;;4182480;28;20571;-72
2021/11/24 02:37:57;;;;;;;27.70;13.47;;;5.20;99.90;;;;;;4181346;28;20543;-72
2021/11/24 02:39:59;;;;;;;29.50;14.53;;;5.10;99.90;;;;;;4178411;28;20464;-73
2021/11/24 02:42:00;;;;;;;26.73;13.80;;;5.10;99.90;;;;;;4182500;28;20449;-73
2021/11/24 02:44:16;;;;;;;26.43;12.90;;;5.10;99.90;;;;;;4179719;28;20990;-73
2021/11/24 02:46:18;;;;;;;24.53;12.40;;;5.10;99.90;;;;;;4181847;28;20444;-76
2021/11/24 02:48:21;;;;;;;25.83;13.07;;;5.00;99.90;;;;;;4180845;28;20459;-73
2021/11/24 02:50:24;;;;;;;26.87;12.70;;;5.10;99.90;;;;;;4176334;28;20469;-73
2021/11/24 02:52:25;;;;;;;25.40;13.03;;;5.10;99.90;;;;;;4168892;28;20834;-74
2021/11/24 02:54:29;;;;;;;24.50;13.30;;;5.10;99.90;;;;;;4173672;28;20572;-73
2021/11/24 02:56:31;;;;;;;28.07;14.27;;;5.10;99.90;;;;;;4177755;28;20479;-77
2021/11/24 02:58:33;;;;;;;26.23;13.57;;;5.00;99.90;;;;;;4174893;28;20457;-73
2021/11/24 03:00:35;;;;;;;32.03;14.97;;;5.10;99.90;;;;;;4180913;28;20465;-74
2021/11/24 03:02:37;;;;;;;27.87;14.23;;;5.10;99.90;;;;;;4168603;28;20805;-73
2021/11/24 03:04:39;;;;;;;28.73;13.80;;;5.10;99.90;;;;;;4176043;28;20489;-75
2021/11/24 03:06:41;;;;;;;24.70;12.70;;;5.00;99.90;;;;;;4177825;28;20561;-76
2021/11/24 03:08:43;;;;;;;23.73;11.73;;;5.00;99.90;;;;;;4169309;28;20902;-73
2021/11/24 03:10:46;;;;;;;25.63;12.73;;;5.00;99.90;;;;;;4173131;28;20473;-73
2021/11/24 03:12:48;;;;;;;25.90;13.33;;;5.00;99.90;;;;;;4172452;28;20499;-73
2021/11/24 03:14:50;;;;;;;25.97;12.40;;;5.00;99.90;;;;;;4177327;28;20568;-72
2021/11/24 03:16:52;;;;;;;23.87;12.40;;;5.00;99.90;;;;;;4169986;28;20911;-73
2021/11/24 03:18:54;;;;;;;26.57;12.37;;;5.00;99.90;;;;;;4180660;28;20563;-73
2021/11/24 03:20:56;;;;;;;25.37;11.93;;;5.00;99.90;;;;;;4179555;28;20548;-73
2021/11/24 03:22:59;;;;;;;27.23;13.43;;;5.00;99.90;;;;;;4168618;28;20823;-74
2021/11/24 03:25:01;;;;;;;26.83;13.00;;;5.00;99.90;;;;;;4177979;28;20581;-73
2021/11/24 03:27:04;;;;;;;24.00;11.73;;;4.90;99.90;;;;;;4180963;28;20458;-73
2021/11/24 03:29:06;;;;;;;23.50;12.17;;;5.00;99.90;;;;;;4181725;28;20926;-73
2021/11/24 03:31:08;;;;;;;27.63;13.10;;;5.00;99.90;;;;;;4168882;28;20982;-73
2021/11/24 03:33:10;;;;;;;28.07;12.87;;;5.00;99.90;;;;;;4174890;28;20454;-73
2021/11/24 03:35:12;;;;;;;28.00;14.00;;;5.00;99.90;;;;;;4177996;28;20531;-74
2021/11/24 03:37:16;;;;;;;26.97;13.50;;;4.90;99.90;;;;;;4181722;28;20492;-75
2021/11/24 03:39:18;;;;;;;25.27;12.37;;;4.90;99.90;;;;;;4176328;28;20960;-74
2021/11/24 03:41:20;;;;;;;23.77;11.87;;;4.90;99.90;;;;;;4178231;28;20476;-73
2021/11/24 03:43:24;;;;;;;23.43;12.20;;;5.00;99.90;;;;;;4179616;28;20473;-74
2021/11/24 03:45:29;;;;;;;25.23;12.67;;;4.90;99.90;;;;;;4180065;28;20471;-73
2021/11/24 03:47:31;;;;;;;22.90;11.77;;;5.00;99.90;;;;;;4178695;28;20460;-73
2021/11/24 03:49:33;;;;;;;24.03;12.33;;;5.00;99.90;;;;;;4180254;28;20462;-73
2021/11/24 03:51:36;;;;;;;23.17;11.93;;;5.00;99.90;;;;;;4179740;28;20552;-73
2021/11/24 03:53:40;;;;;;;27.40;13.03;;;5.00;99.90;;;;;;4179617;28;20587;-73
2021/11/24 03:55:42;;;;;;;26.03;12.80;;;5.00;99.90;;;;;;4176420;28;20489;-73
2021/11/24 03:57:45;;;;;;;26.77;13.07;;;5.00;99.90;;;;;;4173013;28;20465;-73
2021/11/24 03:59:48;;;;;;;25.47;13.10;;;5.00;99.90;;;;;;4177673;28;20548;-74
2021/11/24 04:01:50;;;;;;;24.07;12.10;;;5.00;99.90;;;;;;4167828;28;20563;-73
2021/11/24 04:03:52;;;;;;;27.10;13.40;;;5.00;99.90;;;;;;4174916;28;20607;-72
2021/11/24 04:05:54;;;;;;;25.53;12.70;;;5.00;99.90;;;;;;4179474;28;20464;-73
2021/11/24 04:07:56;;;;;;;31.87;14.40;;;5.00;99.90;;;;;;4180616;28;21272;-73
2021/11/24 04:09:58;;;;;;;26.90;13.67;;;5.00;99.90;;;;;;4179263;28;20466;-77
2021/11/24 04:12:00;;;;;;;27.33;13.67;;;5.00;99.90;;;;;;4172966;28;20469;-74
2021/11/24 04:14:03;;;;;;;27.97;13.83;;;5.00;99.90;;;;;;4178885;28;20559;-73
2021/11/24 04:16:06;;;;;;;24.57;12.70;;;5.00;99.90;;;;;;4179126;28;20484;-73
2021/11/24 04:18:08;;;;;;;29.97;14.10;;;5.00;99.90;;;;;;4180084;28;20532;-73
2021/11/24 04:20:13;;;;;;;24.83;12.57;;;5.00;99.90;;;;;;4178852;28;20459;-74
2021/11/24 04:22:15;;;;;;;25.40;12.43;;;5.00;99.90;;;;;;4166691;28;20989;-75
2021/11/24 04:24:18;;;;;;;28.37;12.83;;;5.00;99.90;;;;;;4176138;28;20943;-76
2021/11/24 04:26:20;;;;;;;24.90;12.83;;;5.00;99.90;;;;;;4176882;28;20464;-74
2021/11/24 04:28:21;;;;;;;25.03;12.93;;;5.00;99.90;;;;;;4176670;28;20460;-75
2021/11/24 04:30:23;;;;;;;26.77;13.57;;;5.00;99.90;;;;;;4168779;28;20560;-76
2021/11/24 04:32:27;;;;;;;29.43;13.47;;;5.00;99.90;;;;;;4171181;28;20454;-73
2021/11/24 04:34:30;;;;;;;28.43;13.70;;;5.00;99.90;;;;;;4176856;28;20487;-75
2021/11/24 04:36:32;;;;;;;26.97;13.70;;;5.00;99.90;;;;;;4164192;28;20501;-72
2021/11/24 04:38:34;;;;;;;26.57;12.77;;;5.00;99.90;;;;;;4163640;28;20544;-73
2021/11/24 04:40:36;;;;;;;27.03;13.50;;;5.00;99.90;;;;;;4166799;28;20472;-73
2021/11/24 04:42:40;;;;;;;23.37;12.33;;;5.00;99.90;;;;;;4180177;28;20489;-76
2021/11/24 04:44:42;;;;;;;25.63;13.13;;;5.00;99.90;;;;;;4163671;28;20536;-73
2021/11/24 04:46:44;;;;;;;27.03;12.70;;;5.00;99.90;;;;;;4173426;28;20497;-73
2021/11/24 04:48:47;;;;;;;27.20;13.23;;;5.00;99.90;;;;;;4180105;28;20515;-73
2021/11/24 04:50:49;;;;;;;28.23;13.30;;;5.00;99.90;;;;;;4164999;28;20484;-73
2021/11/24 04:52:51;;;;;;;27.63;14.03;;;5.00;99.90;;;;;;4180016;28;20457;-73
2021/11/24 04:54:53;;;;;;;27.13;13.97;;;5.00;99.90;;;;;;4179512;28;20483;-75
2021/11/24 04:56:55;;;;;;;26.43;13.23;;;5.00;99.90;;;;;;4175652;28;20580;-73
2021/11/24 04:59:00;;;;;;;28.00;12.90;;;5.00;99.90;;;;;;4173940;28;20852;-78
2021/11/24 05:01:02;;;;;;;27.83;13.90;;;5.00;99.90;;;;;;4165340;28;20465;-72
2021/11/24 05:03:04;;;;;;;28.33;14.10;;;5.00;99.90;;;;;;4176905;28;20479;-73
2021/11/24 05:05:08;;;;;;;27.50;13.20;;;5.00;99.90;;;;;;4173855;28;20548;-73
2021/11/24 05:07:10;;;;;;;22.97;12.27;;;5.00;99.90;;;;;;4166438;28;20461;-72
2021/11/24 05:09:12;;;;;;;26.17;12.73;;;5.10;99.90;;;;;;4168027;28;20453;-72
2021/11/24 05:11:16;;;;;;;25.47;13.00;;;5.00;99.90;;;;;;4174316;28;20551;-73
2021/11/24 05:13:18;;;;;;;23.93;12.30;;;5.00;99.90;;;;;;4179360;28;20481;-73
2021/11/24 05:15:23;;;;;;;25.87;12.80;;;5.00;99.90;;;;;;4176512;28;21080;-73
2021/11/24 05:17:26;;;;;;;25.30;12.60;;;5.10;99.90;;;;;;4175621;28;20473;-75
2021/11/24 05:19:30;;;;;;;25.93;12.03;;;5.10;99.90;;;;;;4178967;28;20453;-73
2021/11/24 05:21:35;;;;;;;24.70;12.10;;;5.10;99.90;;;;;;4171451;28;20845;-76
2021/11/24 05:23:41;;;;;;;25.73;13.10;;;5.00;99.90;;;;;;4172203;28;20509;-73
2021/11/24 05:25:43;;;;;;;25.87;13.30;;;5.10;99.90;;;;;;4173141;28;20554;-74
2021/11/24 05:27:44;;;;;;;23.77;12.00;;;5.10;99.90;;;;;;4175242;28;20532;-73
2021/11/24 05:29:47;;;;;;;29.50;13.47;;;5.10;99.90;;;;;;4176238;28;20543;-73
2021/11/24 05:31:48;;;;;;;24.40;12.37;;;5.10;99.90;;;;;;4172405;28;20477;-75
2021/11/24 05:33:51;;;;;;;26.43;13.30;;;5.10;99.90;;;;;;4179208;28;20568;-73
2021/11/24 05:35:53;;;;;;;25.50;12.77;;;5.10;99.90;;;;;;4173386;28;20488;-73
2021/11/24 05:37:56;;;;;;;27.50;12.50;;;5.10;99.90;;;;;;4176826;28;20548;-73
2021/11/24 05:39:58;;;;;;;26.67;13.23;;;5.20;99.90;;;;;;4171401;28;20469;-73
2021/11/24 05:42:00;;;;;;;27.33;12.70;;;5.10;99.90;;;;;;4172175;28;20989;-75
2021/11/24 05:44:15;;;;;;;26.63;13.50;;;5.20;99.90;;;;;;4176560;28;20512;-74
2021/11/24 05:46:27;;;;;;;26.77;13.40;;;5.20;99.90;;;;;;4168740;28;20503;-76
2021/11/24 05:48:29;;;;;;;32.07;15.00;;;5.20;99.90;;;;;;4170884;28;20482;-77
2021/11/24 05:50:31;;;;;;;32.27;15.10;;;5.20;99.90;;;;;;4175537;28;20505;-76
2021/11/24 05:52:34;;;;;;;32.53;15.20;;;5.20;99.90;;;;;;4180148;28;20495;-76
2021/11/24 05:54:37;;;;;;;31.87;15.10;;;5.10;99.90;;;;;;4179588;28;20556;-76
2021/11/24 05:56:40;;;;;;;33.53;15.50;;;5.20;99.90;;;;;;4174785;28;20576;-77
2021/11/24 05:58:42;;;;;;;32.33;14.30;;;5.10;99.90;;;;;;4178383;28;20457;-76
2021/11/24 06:00:44;;;;;;;31.00;15.10;;;5.10;99.90;;;;;;4175651;28;20465;-76
2021/11/24 06:02:46;;;;;;;29.60;14.70;;;5.10;99.90;;;;;;4174096;28;20492;-76
2021/11/24 06:04:48;;;;;;;32.40;15.13;;;5.10;99.90;;;;;;4182364;28;20488;-76
2021/11/24 06:06:50;;;;;;;30.80;14.57;;;5.10;99.90;;;;;;4176470;28;20489;-77
2021/11/24 06:08:52;;;;;;;27.87;14.07;;;5.10;99.90;;;;;;4183096;28;20531;-77
2021/11/24 06:10:55;;;;;;;30.03;14.53;;;5.10;99.90;;;;;;4179220;28;20536;-76
2021/11/24 06:12:57;;;;;;;29.43;13.73;;;5.10;99.90;;;;;;4181314;28;20464;-77
2021/11/24 06:14:59;;;;;;;27.43;14.07;;;5.10;99.90;;;;;;4171860;28;20493;-76
2021/11/24 06:17:01;;;;;;;30.50;13.63;;;5.20;99.90;;;;;;4177419;28;20488;-76
2021/11/24 06:19:03;;;;;;;28.63;13.43;;;5.10;99.90;;;;;;4173998;28;21033;-75
2021/11/24 06:21:05;;;;;;;29.57;13.87;;;5.10;99.90;;;;;;4169100;28;20917;-75
2021/11/24 06:23:08;;;;;;;28.03;13.77;;;5.20;99.90;;;;;;4172448;28;20806;-76
2021/11/24 06:25:11;;;;;;;28.57;13.73;;;5.20;99.90;;;;;;4167572;28;20454;-77
2021/11/24 06:27:15;;;;;;;27.57;13.50;;;5.20;99.90;;;;;;4181783;28;20449;-75
2021/11/24 06:29:17;;;;;;;30.53;14.13;;;5.20;99.90;;;;;;4178400;28;20548;-76
2021/11/24 06:31:20;;;;;;;27.27;13.43;;;5.20;99.90;;;;;;4175843;28;20466;-76
2021/11/24 06:33:22;;;;;;;30.07;14.70;;;5.20;99.90;;;;;;4172271;28;20473;-76
2021/11/24 06:35:24;;;;;;;29.40;14.50;;;5.20;99.90;;;;;;4170335;28;20537;-75
2021/11/24 06:37:25;;;;;;;27.87;13.40;;;5.20;99.90;;;;;;4172158;28;20488;-75
2021/11/24 06:39:28;;;;;;;28.70;13.50;;;5.20;99.90;;;;;;4173317;28;20857;-74
2021/11/24 06:41:30;;;;;;;26.50;13.10;;;5.20;99.90;;;;;;4173252;28;20539;-77
2021/11/24 06:43:33;;;;;;;28.10;13.43;;;5.20;99.90;;;;;;4173153;28;20574;-76
2021/11/24 06:45:35;;;;;;;29.30;13.87;;;5.20;99.90;;;;;;4173523;28;21177;-76
2021/11/24 06:47:38;;;;;;;29.67;14.03;;;5.20;99.90;;;;;;4172700;28;20557;-73
2021/11/24 06:49:43;;;;;;;26.27;12.90;;;5.20;99.90;;;;;;4173373;28;20501;-76
2021/11/24 06:51:45;;;;;;;28.37;13.93;;;5.20;99.90;;;;;;4176058;28;20488;-76
2021/11/24 06:53:47;;;;;;;30.27;13.30;;;5.20;99.90;;;;;;4174991;28;20488;-76
2021/11/24 06:55:49;;;;;;;26.53;13.57;;;5.20;99.90;;;;;;4174703;28;20882;-80
2021/11/24 06:57:50;;;;;;;30.10;14.27;;;5.20;99.90;;;;;;4174715;28;21093;-79
2021/11/24 06:59:54;;;;;;;26.97;12.97;;;5.20;99.90;;;;;;4179942;28;20461;-80
2021/11/24 07:01:56;;;;;;;27.07;13.87;;;5.20;99.90;;;;;;4176593;28;20463;-79
2021/11/24 07:03:58;;;;;;;28.27;13.93;;;5.20;99.90;;;;;;4174866;28;20608;-75
2021/11/24 07:06:00;;;;;;;27.77;13.87;;;5.20;99.90;;;;;;4174501;28;20519;-79
2021/11/24 07:08:02;;;;;;;28.40;13.77;;;5.20;99.90;;;;;;4171325;28;20910;-75
2021/11/24 07:10:05;;;;;;;26.20;13.67;;;5.20;99.90;;;;;;4174704;28;20890;-76
2021/11/24 07:12:08;;;;;;;30.93;14.27;;;5.20;99.90;;;;;;4174091;28;20488;-75
2021/11/24 07:14:10;;;;;;;28.47;14.03;;;5.20;99.90;;;;;;4173182;28;20492;-76
2021/11/24 07:16:13;;;;;;;31.00;14.77;;;5.20;99.90;;;;;;4174878;28;20457;-76
2021/11/24 07:18:16;;;;;;;33.10;15.07;;;5.20;99.90;;;;;;4173548;28;20930;-77
2021/11/24 07:20:17;;;;;;;32.70;15.00;;;5.20;99.90;;;;;;4171770;28;20514;-75
2021/11/24 07:22:20;;;;;;;31.50;14.03;;;5.30;99.90;;;;;;4174736;28;20498;-75
2021/11/24 07:24:22;;;;;;;30.37;14.30;;;5.30;99.90;;;;;;4169622;28;21037;-76
2021/11/24 07:26:24;;;;;;;29.63;13.70;;;5.30;99.90;;;;;;4174951;28;20950;-76
2021/11/24 07:28:26;;;;;;;32.83;14.57;;;5.30;99.90;;;;;;4174100;28;20570;-76
2021/11/24 07:30:28;;;;;;;30.10;14.57;;;5.30;99.90;;;;;;4171577;28;20473;-75
2021/11/24 07:32:31;;;;;;;34.17;15.53;;;5.30;99.90;;;;;;4172354;28;20772;-75
2021/11/24 07:34:33;;;;;;;30.43;14.50;;;5.30;99.90;;;;;;4175440;28;20584;-75
2021/11/24 07:36:35;;;;;;;27.53;14.47;;;5.30;99.90;;;;;;4175077;28;20571;-75
2021/11/24 07:38:37;;;;;;;31.80;14.87;;;5.30;99.90;;;;;;4170214;28;20473;-75
2021/11/24 07:40:40;;;;;;;32.33;15.27;;;5.40;99.90;;;;;;4173686;28;20778;-76
2021/11/24 07:42:43;;;;;;;31.60;15.47;;;5.40;99.90;;;;;;4174168;28;20480;-76
2021/11/24 07:44:44;;;;;;;31.00;14.87;;;5.40;99.90;;;;;;4173996;28;20509;-74
2021/11/24 07:46:46;;;;;;;31.80;14.60;;;5.40;99.90;;;;;;4173529;28;20540;-76
2021/11/24 07:48:50;;;;;;;29.90;14.50;;;5.40;99.90;;;;;;4170502;28;20985;-76
2021/11/24 07:50:52;;;;;;;29.13;13.57;;;5.40;99.90;;;;;;4172809;28;20457;-75
2021/11/24 07:52:55;;;;;;;29.50;14.77;;;5.40;99.90;;;;;;4173438;28;20515;-76
2021/11/24 07:54:56;;;;;;;31.37;15.30;;;5.50;99.90;;;;;;4173879;28;20480;-76
2021/11/24 07:56:58;;;;;;;36.17;15.50;;;5.50;99.90;;;;;;4173865;28;20485;-76
2021/11/24 07:59:00;;;;;;;28.37;13.60;;;5.50;99.90;;;;;;4172161;28;20488;-75
2021/11/24 08:01:02;;;;;;;29.87;14.27;;;5.60;99.90;;;;;;4174159;28;20463;-75
2021/11/24 08:03:04;;;;;;;31.60;14.97;;;5.50;99.90;;;;;;4172729;28;20565;-76
2021/11/24 08:05:09;;;;;;;30.40;14.60;;;5.60;99.90;;;;;;4171939;28;20989;-74
2021/11/24 08:07:11;;;;;;;30.67;14.60;;;5.50;99.90;;;;;;4172141;28;20466;-76
2021/11/24 08:09:12;;;;;;;27.57;13.43;;;5.60;99.90;;;;;;4174126;28;20523;-76
2021/11/24 08:11:14;;;;;;;29.47;14.03;;;5.60;99.90;;;;;;4174657;28;20465;-75
2021/11/24 08:13:19;;;;;;;31.70;15.83;;;5.60;99.90;;;;;;4173626;28;20469;-75
2021/11/24 08:15:21;;;;;;;30.27;14.43;;;5.60;99.90;;;;;;4173571;28;20476;-75
2021/11/24 08:17:23;;;;;;;30.97;15.13;;;5.60;99.90;;;;;;4171591;28;20501;-76
2021/11/24 08:19:25;;;;;;;32.47;14.50;;;5.70;99.90;;;;;;4173738;28;20456;-75
2021/11/24 08:21:28;;;;;;;29.77;14.30;;;5.70;99.90;;;;;;4173705;28;20457;-75
2021/11/24 08:23:31;;;;;;;30.40;14.43;;;5.70;99.90;;;;;;4173206;28;20532;-75
2021/11/24 08:25:33;;;;;;;28.37;14.30;;;5.70;99.90;;;;;;4172969;28;20850;-76
2021/11/24 08:27:35;;;;;;;29.70;14.90;;;5.80;99.90;;;;;;4173010;28;20892;-76
2021/11/24 08:29:37;;;;;;;29.10;14.07;;;5.80;99.90;;;;;;4172620;28;20473;-76
2021/11/24 08:31:40;;;;;;;31.53;14.17;;;5.80;99.90;;;;;;4170970;28;20557;-76
2021/11/24 08:33:42;;;;;;;28.37;14.07;;;5.80;99.90;;;;;;4173328;28;20496;-76
2021/11/24 08:35:44;;;;;;;32.80;15.40;;;5.80;99.90;;;;;;4172662;28;20497;-75
2021/11/24 08:37:48;;;;;;;27.47;13.73;;;5.80;99.90;;;;;;4172567;28;20494;-74
2021/11/24 08:39:50;;;;;;;33.50;15.97;;;5.90;99.90;;;;;;4173022;28;20484;-76
2021/11/24 08:41:52;;;;;;;31.60;15.40;;;5.90;99.90;;;;;;4173580;28;20463;-75
2021/11/24 08:43:54;;;;;;;33.07;15.03;;;5.90;99.90;;;;;;4172465;28;20501;-76
2021/11/24 08:45:57;;;;;;;30.57;15.57;;;5.90;99.90;;;;;;4173506;28;20466;-76
2021/11/24 08:48:00;;;;;;;30.37;15.10;;;5.90;99.90;;;;;;4172077;28;20487;-76
2021/11/24 08:50:02;;;;;;;31.83;14.67;;;5.90;99.90;;;;;;4171916;28;21011;-75
2021/11/24 08:52:04;;;;;;;29.03;14.57;;;6.00;99.90;;;;;;4173786;28;20478;-75
2021/11/24 08:54:09;;;;;;;30.43;14.63;;;6.00;99.90;;;;;;4173805;28;21387;-76
2021/11/24 08:56:12;;;;;;;30.30;14.07;;;6.00;99.90;;;;;;4170559;28;20504;-77
2021/11/24 08:58:14;;;;;;;31.50;14.80;;;6.10;99.90;;;;;;4173328;28;20527;-76
2021/11/24 09:00:18;;;;;;;32.53;16.20;;;6.10;99.90;;;;;;4172955;28;20471;-76
2021/11/24 09:02:24;;;;;;;34.17;16.13;;;6.10;99.90;;;;;;4173733;28;20550;-75
2021/11/24 09:04:25;;;;;;;32.00;14.60;;;6.10;99.90;;;;;;4173203;28;20494;-74
2021/11/24 09:06:27;;;;;;;30.87;15.07;;;6.10;99.90;;;;;;4171575;28;20466;-74
2021/11/24 09:08:29;;;;;;;32.33;14.97;;;6.20;99.90;;;;;;4170152;28;21214;-74
2021/11/24 09:10:35;;;;;;;30.67;14.23;;;6.10;99.90;;;;;;4171753;28;20542;-76
2021/11/24 09:12:37;;;;;;;29.37;15.07;;;6.20;99.90;;;;;;4174892;28;20482;-78
2021/11/24 09:14:39;;;;;;;31.13;14.60;;;6.20;99.90;;;;;;4171985;28;20562;-74
2021/11/24 09:16:41;;;;;;;28.63;14.10;;;6.20;99.90;;;;;;4172060;28;20477;-76
2021/11/24 09:18:43;;;;;;;29.97;14.60;;;6.20;99.90;;;;;;4173342;28;20501;-75
2021/11/24 09:20:46;;;;;;;33.00;15.13;;;6.20;99.90;;;;;;4172339;28;20548;-76
2021/11/24 09:22:49;;;;;;;34.03;15.07;;;6.30;99.90;;;;;;4172956;28;20459;-75
2021/11/24 09:24:54;;;;;;;31.83;14.97;;;6.30;99.90;;;;;;4172643;28;20495;-76
2021/11/24 09:27:01;;;;;;;33.27;15.83;;;6.30;99.90;;;;;;4172325;28;20821;-75
2021/11/24 09:29:03;;;;;;;30.10;15.20;;;6.40;99.90;;;;;;4174499;28;20459;-75
2021/11/24 09:31:04;;;;;;;30.93;15.07;;;6.40;99.90;;;;;;4176983;28;20915;-75
2021/11/24 09:33:06;;;;;;;35.93;16.37;;;6.40;99.90;;;;;;4177894;28;20557;-75
2021/11/24 09:35:09;;;;;;;31.67;14.30;;;6.40;99.90;;;;;;4178293;28;20464;-74
2021/11/24 09:37:11;;;;;;;32.70;15.50;;;6.40;99.90;;;;;;4176485;28;20484;-75
2021/11/24 09:39:13;;;;;;;32.93;15.53;;;6.50;99.90;;;;;;4178326;28;20458;-76
2021/11/24 09:41:16;;;;;;;34.00;16.03;;;6.50;99.90;;;;;;4176068;28;20846;-75
2021/11/24 09:43:20;;;;;;;34.53;15.37;;;6.50;99.90;;;;;;4178921;28;20466;-75
2021/11/24 09:45:22;;;;;;;32.67;14.93;;;6.50;99.90;;;;;;4177964;28;20466;-75
2021/11/24 09:47:29;;;;;;;28.70;14.40;;;6.50;99.90;;;;;;4178507;28;20470;-76
2021/11/24 09:49:31;;;;;;;32.20;14.73;;;6.50;99.90;;;;;;4178983;28;20459;-75
2021/11/24 09:51:34;;;;;;;32.20;15.37;;;6.60;99.90;;;;;;4175718;28;21389;-76
2021/11/24 09:53:37;;;;;;;31.33;15.93;;;6.60;99.90;;;;;;4176527;28;20512;-75
2021/11/24 09:55:40;;;;;;;32.83;15.70;;;6.60;99.90;;;;;;4178672;28;20560;-76
2021/11/24 09:57:42;;;;;;;32.03;14.80;;;6.60;99.90;;;;;;4178307;28;21004;-77
2021/11/24 09:59:46;;;;;;;30.47;14.63;;;6.60;99.90;;;;;;4177145;28;20551;-76
2021/11/24 10:01:48;;;;;;;33.47;15.07;;;6.70;99.90;;;;;;4177106;28;20888;-77
2021/11/24 10:03:50;;;;;;;31.17;14.83;;;6.70;99.90;;;;;;4178345;28;20505;-76
2021/11/24 10:05:52;;;;;;;32.20;15.00;;;6.70;99.90;;;;;;4177914;28;20459;-75
2021/11/24 10:07:54;;;;;;;31.63;15.23;;;6.70;99.90;;;;;;4176513;28;20473;-75
2021/11/24 10:09:56;;;;;;;30.13;14.70;;;6.70;99.90;;;;;;4177671;28;20465;-75
2021/11/24 10:11:58;;;;;;;29.57;14.93;;;6.70;99.90;;;;;;4178372;28;20890;-78
2021/11/24 10:14:00;;;;;;;33.13;15.47;;;6.70;99.90;;;;;;4176972;28;21113;-77
2021/11/24 10:16:04;;;;;;;31.00;15.47;;;6.80;99.90;;;;;;4177195;28;20460;-76
2021/11/24 10:18:22;;;;;;;32.97;14.67;;;6.80;99.90;;;;;;4177181;28;20942;-77
2021/11/24 10:20:23;;;;;;;31.50;15.00;;;6.80;99.90;;;;;;4178742;28;20514;-79
2021/11/24 10:22:26;;;;;;;31.23;13.73;;;6.90;99.90;;;;;;4177975;28;20470;-77
2021/11/24 10:24:31;;;;;;;30.60;14.40;;;6.90;99.90;;;;;;4175368;28;20489;-75
2021/11/24 10:26:35;;;;;;;30.70;14.83;;;6.90;99.90;;;;;;4177664;28;20536;-77
2021/11/24 10:28:37;;;;;;;29.73;13.87;;;6.90;99.90;;;;;;4178555;28;20578;-77
2021/11/24 10:30:39;;;;;;;32.30;15.30;;;7.00;99.90;;;;;;4177949;28;20553;-76